createdAt,value
2023-04-19T00:00:34.137Z,51.60
2023-04-19T00:03:05.658Z,53.38
2023-04-19T00:05:36.931Z,51.33
2023-04-19T00:08:08.467Z,52.43
2023-04-19T00:10:41.103Z,51.40
2023-04-19T00:13:12.192Z,54.80
2023-04-19T00:15:43.354Z,53.45
2023-04-19T00:18:14.534Z,49.35
2023-04-19T00:20:45.651Z,49.03
2023-04-19T00:23:16.812Z,49.85
2023-04-19T00:25:49.255Z,47.88
2023-04-19T00:28:20.368Z,56.90
2023-04-19T00:30:51.522Z,52.17
2023-04-19T00:33:22.767Z,46.92
2023-04-19T00:35:53.766Z,50.03
2023-04-19T00:38:24.982Z,48.55
2023-04-19T00:40:56.054Z,48.17
2023-04-19T00:43:27.376Z,47.93
2023-04-19T00:45:58.868Z,47.03
2023-04-19T00:48:30.234Z,45.92
2023-04-19T00:51:01.654Z,49.60
2023-04-19T00:53:33.077Z,48.28
2023-04-19T00:56:06.363Z,53.70
2023-04-19T00:58:37.650Z,44.40
2023-04-19T01:01:09.103Z,48.13
2023-04-19T01:03:40.648Z,45.92
2023-04-19T01:06:12.281Z,41.23
2023-04-19T01:08:44.023Z,43.73
2023-04-19T01:11:15.110Z,42.38
2023-04-19T01:13:46.590Z,41.40
2023-04-19T01:16:17.918Z,43.13
2023-04-19T01:18:49.079Z,54.15
2023-04-19T01:21:20.205Z,49.73
2023-04-19T01:23:51.833Z,37.58
2023-04-19T01:26:23.416Z,51.28
2023-04-19T01:28:54.745Z,34.88
2023-04-19T01:31:46.127Z,35.55
2023-04-19T01:34:17.303Z,40.70
2023-04-19T01:36:48.510Z,39.73
2023-04-19T01:39:19.689Z,33.45
2023-04-19T01:41:50.797Z,32.05
2023-04-19T01:44:21.869Z,36.45
2023-04-19T01:46:53.610Z,33.98
2023-04-19T01:49:25.055Z,31.82
2023-04-19T01:51:56.260Z,35.85
2023-04-19T01:54:28.047Z,37.50
2023-04-19T01:56:59.658Z,37.03
2023-04-19T01:59:30.750Z,38.30
2023-04-19T02:02:02.341Z,38.42
2023-04-19T02:04:35.049Z,35.10
2023-04-19T02:07:10.466Z,31.07
2023-04-19T02:09:42.252Z,36.90
2023-04-19T02:12:13.795Z,36.77
2023-04-19T02:14:45.194Z,40.15
2023-04-19T02:17:16.335Z,36.10
2023-04-19T02:19:47.408Z,32.50
2023-04-19T02:22:18.476Z,31.97
2023-04-19T02:24:50.273Z,38.48
2023-04-19T02:27:21.662Z,41.28
2023-04-19T02:29:52.933Z,39.18
2023-04-19T02:32:24.137Z,35.80
2023-04-19T02:34:55.566Z,38.45
2023-04-19T02:37:26.667Z,36.68
2023-04-19T02:39:58.179Z,31.87
2023-04-19T02:42:29.268Z,39.15
2023-04-19T02:45:00.351Z,32.73
2023-04-19T02:47:31.925Z,33.30
2023-04-19T02:50:03.293Z,39.23
2023-04-19T02:52:34.739Z,34.58
2023-04-19T02:55:05.851Z,37.15
2023-04-19T02:57:37.152Z,34.48
2023-04-19T03:00:10.055Z,36.70
2023-04-19T03:02:41.276Z,34.25
2023-04-19T03:05:13.046Z,32.50
2023-04-19T03:07:44.703Z,34.73
2023-04-19T03:10:16.516Z,34.38
2023-04-19T03:12:47.590Z,33.78
2023-04-19T03:15:18.824Z,33.88
2023-04-19T03:17:49.984Z,38.13
2023-04-19T03:20:22.001Z,34.33
2023-04-19T03:22:55.231Z,33.63
2023-04-19T03:25:26.537Z,33.58
2023-04-19T03:27:58.742Z,35.45
2023-04-19T03:30:30.351Z,39.85
2023-04-19T03:33:02.048Z,41.85
2023-04-19T03:35:33.646Z,35.03
2023-04-19T03:38:05.263Z,45.98
2023-04-19T03:40:40.637Z,47.15
2023-04-19T03:43:11.758Z,38.10
2023-04-19T03:45:43.274Z,37.38
2023-04-19T03:48:14.512Z,35.98
2023-04-19T03:50:46.006Z,48.20
2023-04-19T03:53:17.126Z,38.28
2023-04-19T03:55:48.530Z,59.90
2023-04-19T03:58:26.443Z,39.35
2023-04-19T04:00:57.716Z,36.48
2023-04-19T04:03:29.546Z,38.13
2023-04-19T04:06:00.677Z,36.15
2023-04-19T04:08:31.931Z,39.80
2023-04-19T04:11:03.870Z,40.23
2023-04-19T04:13:35.303Z,41.00
2023-04-19T04:16:06.616Z,43.02
2023-04-19T04:18:37.758Z,51.08
2023-04-19T04:21:09.094Z,64.05
2023-04-19T04:23:40.418Z,46.95
2023-04-19T04:26:12.197Z,38.33
2023-04-19T04:28:43.529Z,36.25
2023-04-19T04:31:14.666Z,44.50
2023-04-19T04:33:47.043Z,39.67
2023-04-19T04:36:18.178Z,37.15
2023-04-19T04:38:49.729Z,37.95
2023-04-19T04:41:22.804Z,41.75
2023-04-19T04:44:10.754Z,39.08
2023-04-19T04:46:27.230Z,34.27
2023-04-19T04:48:58.507Z,35.13
2023-04-19T04:51:29.741Z,39.90
2023-04-19T04:54:00.936Z,37.13
2023-04-19T04:56:32.036Z,37.53
2023-04-19T04:59:03.610Z,45.25
2023-04-19T05:01:35.177Z,39.38
2023-04-19T05:04:06.859Z,35.35
2023-04-19T05:06:38.133Z,37.08
2023-04-19T05:09:09.264Z,35.83
2023-04-19T05:11:40.508Z,38.75
2023-04-19T05:14:11.854Z,35.43
2023-04-19T05:16:43.766Z,39.73
2023-04-19T05:19:14.954Z,34.70
2023-04-19T05:21:46.489Z,37.08
2023-04-19T05:24:18.140Z,34.65
2023-04-19T05:26:49.757Z,36.03
2023-04-19T05:29:20.925Z,34.10
2023-04-19T05:31:52.043Z,35.17
2023-04-19T05:34:23.490Z,37.60
2023-04-19T05:36:54.752Z,35.58
2023-04-19T05:39:25.899Z,39.03
2023-04-19T05:41:57.466Z,36.28
2023-04-19T05:44:28.511Z,35.20
2023-04-19T05:46:59.578Z,34.48
2023-04-19T05:49:30.684Z,38.98
2023-04-19T05:52:01.980Z,35.03
2023-04-19T05:54:34.331Z,36.08
2023-04-19T05:57:05.927Z,37.23
2023-04-19T05:59:37.121Z,35.17
2023-04-19T06:02:08.426Z,36.35
2023-04-19T06:04:40.150Z,34.85
2023-04-19T06:07:22.399Z,37.63
2023-04-19T06:09:44.260Z,34.20
2023-04-19T06:12:15.349Z,49.83
2023-04-19T06:14:46.559Z,33.42
2023-04-19T06:17:18.600Z,35.90
2023-04-19T06:19:49.689Z,38.83
2023-04-19T06:22:20.905Z,36.77
2023-04-19T06:24:52.089Z,34.75
2023-04-19T06:27:23.872Z,33.58
2023-04-19T06:29:55.578Z,39.85
2023-04-19T06:32:27.612Z,37.98
2023-04-19T06:34:59.125Z,49.98
2023-04-19T06:37:30.460Z,36.50
2023-04-19T06:40:02.471Z,39.33
2023-04-19T06:42:33.716Z,40.98
2023-04-19T06:45:05.177Z,45.20
2023-04-19T06:47:37.175Z,44.18
2023-04-19T06:50:09.745Z,33.98
2023-04-19T06:52:41.054Z,38.25
2023-04-19T06:55:13.037Z,34.35
2023-04-19T06:57:44.749Z,42.30
2023-04-19T07:00:16.990Z,42.30
2023-04-19T07:02:48.825Z,43.48
2023-04-19T07:05:20.229Z,37.45
2023-04-19T07:07:51.427Z,41.20
2023-04-19T07:10:22.715Z,41.63
2023-04-19T07:12:54.658Z,34.43
2023-04-19T07:15:25.978Z,36.98
2023-04-19T07:17:57.315Z,37.90
2023-04-19T07:20:28.746Z,47.30
2023-04-19T07:23:02.842Z,35.90
2023-04-19T07:25:34.149Z,36.90
2023-04-19T07:28:05.976Z,36.40
2023-04-19T07:30:38.639Z,36.83
2023-04-19T07:33:10.111Z,46.98
2023-04-19T07:35:43.165Z,41.77
2023-04-19T07:38:15.245Z,39.75
2023-04-19T07:40:46.868Z,46.13
2023-04-19T07:43:18.147Z,48.13
2023-04-19T07:45:49.883Z,45.30
2023-04-19T07:48:21.399Z,49.13
2023-04-19T07:50:53.183Z,37.80
2023-04-19T07:53:24.470Z,43.17
2023-04-19T07:55:55.740Z,38.60
2023-04-19T07:58:28.101Z,46.85
2023-04-19T08:00:59.473Z,41.30
2023-04-19T08:03:31.052Z,37.93
2023-04-19T08:06:03.734Z,57.03
2023-04-19T08:08:35.189Z,45.52
2023-04-19T08:11:07.389Z,38.63
2023-04-19T08:13:40.398Z,38.33
2023-04-19T08:18:45.459Z,56.28
2023-04-19T08:21:16.880Z,44.93
2023-04-19T08:23:48.772Z,40.35
2023-04-19T08:26:20.296Z,46.02
2023-04-19T08:28:53.536Z,41.28
2023-04-19T08:31:25.182Z,38.98
2023-04-19T08:33:56.607Z,41.40
2023-04-19T08:36:39.017Z,46.48
2023-04-19T08:39:06.539Z,40.92
2023-04-19T08:41:35.380Z,39.78
2023-04-19T08:44:35.963Z,40.70
2023-04-19T08:47:01.478Z,39.03
2023-04-19T08:49:33.836Z,40.60
2023-04-19T08:52:06.212Z,41.95
2023-04-19T08:54:39.456Z,41.92
2023-04-19T08:57:11.366Z,39.38
2023-04-19T08:59:43.633Z,43.42
2023-04-19T09:02:15.034Z,40.28
2023-04-19T09:04:46.718Z,40.12
2023-04-19T09:07:31.165Z,41.53
2023-04-19T09:10:10.628Z,45.10
2023-04-19T09:12:42.888Z,41.77
2023-04-19T09:15:14.375Z,52.27
2023-04-19T09:17:46.340Z,40.85
2023-04-19T09:20:17.773Z,38.63
2023-04-19T09:22:51.872Z,42.67
2023-04-19T09:25:52.279Z,41.28
2023-04-19T09:28:18.251Z,57.05
2023-04-19T09:31:02.335Z,48.08
2023-04-19T09:33:40.965Z,43.05
2023-04-19T09:36:14.550Z,47.38
2023-04-19T09:38:54.665Z,54.70
2023-04-19T09:41:26.226Z,56.20
2023-04-19T09:44:18.774Z,70.70
2023-04-19T09:46:36.981Z,46.70
2023-04-19T09:49:28.017Z,46.40
2023-04-19T09:51:55.026Z,60.45
2023-04-19T09:54:28.626Z,50.23
2023-04-19T09:57:01.460Z,44.58
2023-04-19T09:59:32.879Z,39.73
2023-04-19T10:02:05.428Z,41.05
2023-04-19T10:09:53.152Z,41.58
2023-04-19T10:12:39.032Z,46.83
2023-04-19T10:14:50.982Z,42.67
2023-04-19T10:17:23.058Z,43.28
2023-04-19T10:20:02.798Z,42.27
2023-04-19T10:22:35.173Z,43.80
2023-04-19T10:25:14.077Z,43.95
2023-04-19T10:27:50.533Z,49.45
2023-04-19T10:30:29.499Z,42.58
2023-04-19T10:33:06.099Z,69.22
2023-04-19T10:35:41.655Z,44.95
2023-04-19T10:38:14.815Z,43.33
2023-04-19T10:41:01.526Z,39.78
2023-04-19T10:43:35.286Z,41.60
2023-04-19T10:46:11.714Z,42.70
2023-04-19T10:48:45.232Z,43.75
2023-04-19T10:51:24.218Z,41.58
2023-04-19T10:53:57.383Z,45.10
2023-04-19T10:56:36.948Z,43.17
2023-04-19T10:59:12.006Z,44.90
2023-04-19T11:01:47.564Z,42.78
2023-04-19T11:04:24.434Z,45.05
2023-04-19T11:06:58.457Z,47.05
2023-04-19T11:09:39.593Z,45.80
2023-04-19T11:12:13.259Z,44.85
2023-04-19T11:14:49.594Z,45.85
2023-04-19T11:17:27.241Z,44.65
2023-04-19T11:20:03.104Z,51.58
2023-04-19T11:22:44.604Z,45.33
2023-04-19T11:25:23.617Z,45.67
2023-04-19T11:27:57.124Z,52.78
2023-04-19T11:30:35.047Z,46.60
2023-04-19T11:33:06.392Z,48.52
2023-04-19T11:35:40.771Z,48.23
2023-04-19T11:38:13.250Z,45.80
2023-04-19T11:40:44.619Z,46.28
2023-04-19T11:43:16.090Z,48.48
2023-04-19T11:45:47.763Z,47.83
2023-04-19T11:48:19.500Z,46.25
2023-04-19T11:50:51.238Z,48.60
2023-04-19T11:53:24.441Z,48.87
2023-04-19T11:55:57.872Z,47.35
2023-04-19T11:58:37.816Z,45.20
2023-04-19T12:01:13.910Z,50.17
2023-04-19T12:06:28.256Z,48.15
2023-04-19T12:09:00.285Z,50.00
2023-04-19T12:11:48.340Z,52.13
2023-04-19T12:14:22.152Z,49.10
2023-04-19T12:17:18.268Z,48.35
2023-04-19T12:19:50.841Z,48.15
2023-04-19T12:22:23.322Z,50.08
2023-04-19T12:24:58.171Z,48.25
2023-04-19T12:27:29.609Z,49.95
2023-04-19T12:30:01.100Z,47.50
2023-04-19T12:32:32.378Z,49.70
2023-04-19T12:35:03.796Z,47.50
2023-04-19T12:37:35.420Z,50.90
2023-04-19T12:40:07.172Z,49.48
2023-04-19T12:42:38.562Z,48.33
2023-04-19T12:45:11.610Z,47.83
2023-04-19T12:47:43.276Z,47.38
2023-04-19T12:50:16.394Z,47.48
2023-04-19T12:52:48.221Z,48.33
2023-04-19T12:55:19.637Z,48.30
2023-04-19T12:57:50.991Z,46.33
2023-04-19T13:00:22.493Z,45.60
2023-04-19T13:02:54.087Z,49.40
2023-04-19T13:05:25.754Z,46.55
2023-04-19T13:07:57.337Z,46.18
2023-04-19T13:10:28.610Z,45.73
2023-04-19T13:13:00.724Z,46.30
2023-04-19T13:15:34.728Z,46.83
2023-04-19T13:18:05.995Z,46.75
2023-04-19T13:20:37.326Z,48.90
2023-04-19T13:23:08.614Z,49.93
2023-04-19T13:25:40.182Z,51.92
2023-04-19T13:28:14.987Z,51.18
2023-04-19T13:30:46.527Z,55.80
2023-04-19T13:33:17.944Z,51.15
2023-04-19T13:35:49.213Z,53.08
2023-04-19T13:38:39.527Z,52.27
2023-04-19T13:41:11.198Z,52.90
2023-04-19T13:43:42.701Z,52.43
2023-04-19T13:46:15.586Z,51.30
2023-04-19T13:48:46.980Z,52.45
2023-04-19T13:51:19.160Z,56.30
2023-04-19T13:53:50.550Z,50.38
2023-04-19T13:56:21.837Z,52.62
2023-04-19T13:58:53.318Z,49.80
2023-04-19T14:01:25.488Z,52.25
2023-04-19T14:03:57.539Z,51.10
2023-04-19T14:06:29.360Z,51.13
2023-04-19T14:09:00.725Z,50.15
2023-04-19T14:11:32.986Z,51.50
2023-04-19T14:14:06.153Z,53.23
2023-04-19T14:16:37.569Z,51.75
2023-04-19T14:19:08.930Z,50.90
2023-04-19T14:21:40.346Z,51.70
2023-04-19T14:24:15.420Z,53.75
2023-04-19T14:27:03.214Z,50.40
2023-04-19T14:29:25.045Z,52.83
2023-04-19T14:31:56.671Z,52.20
2023-04-19T14:34:28.214Z,53.75
2023-04-19T14:36:59.456Z,56.25
2023-04-19T14:39:31.190Z,50.00
2023-04-19T14:42:02.602Z,50.90
2023-04-19T14:44:33.961Z,49.13
2023-04-19T14:47:05.407Z,52.55
2023-04-19T14:49:36.987Z,55.90
2023-04-19T14:52:08.703Z,48.98
2023-04-19T14:54:40.621Z,51.15
2023-04-19T14:57:12.217Z,48.78
2023-04-19T14:59:44.110Z,48.28
2023-04-19T15:02:15.858Z,51.08
2023-04-19T15:04:47.442Z,49.85
2023-04-19T15:07:18.815Z,49.58
2023-04-19T15:09:50.520Z,50.60
2023-04-19T15:12:22.186Z,58.02
2023-04-19T15:14:53.603Z,53.38
2023-04-19T15:17:24.992Z,51.88
2023-04-19T15:19:56.461Z,51.48
2023-04-19T15:22:27.919Z,50.63
2023-04-19T15:24:59.363Z,50.83
2023-04-19T15:27:30.656Z,49.90
2023-04-19T15:30:02.255Z,49.63
2023-04-19T15:32:35.260Z,49.45
2023-04-19T15:35:07.492Z,50.55
2023-04-19T15:37:39.824Z,48.58
2023-04-19T15:40:13.977Z,49.42
2023-04-19T15:42:45.587Z,49.67
2023-04-19T15:45:17.186Z,49.60
2023-04-19T15:47:48.722Z,47.58
2023-04-19T15:50:20.455Z,52.33
2023-04-19T15:52:51.851Z,49.08
2023-04-19T15:55:23.714Z,47.23
2023-04-19T15:57:55.065Z,49.58
2023-04-19T16:00:26.708Z,47.27
2023-04-19T16:02:58.354Z,48.87
2023-04-19T16:05:30.022Z,48.58
2023-04-19T16:08:06.246Z,47.35
2023-04-19T16:13:08.266Z,48.83
2023-04-19T16:15:39.721Z,49.50
2023-04-19T16:18:11.688Z,49.48
2023-04-19T16:20:43.755Z,48.92
2023-04-19T16:23:15.778Z,48.35
2023-04-19T16:25:47.453Z,47.45
2023-04-19T16:28:19.853Z,53.85
2023-04-19T16:30:51.389Z,47.65
2023-04-19T16:33:22.870Z,48.60
2023-04-19T16:35:54.396Z,50.40
2023-04-19T16:38:25.694Z,48.55
2023-04-19T16:40:57.297Z,49.13
2023-04-19T16:43:28.646Z,49.42
2023-04-19T16:46:04.440Z,50.33
2023-04-19T16:48:35.880Z,53.73
2023-04-19T16:51:07.314Z,48.33
2023-04-19T16:53:38.862Z,47.93
2023-04-19T16:56:10.416Z,51.37
2023-04-19T16:58:44.121Z,47.40
2023-04-19T17:01:15.041Z,48.73
2023-04-19T17:03:47.791Z,46.63
2023-04-19T17:06:19.311Z,46.35
2023-04-19T17:08:53.803Z,47.25
2023-04-19T17:11:25.275Z,46.73
2023-04-19T17:13:56.888Z,49.10
2023-04-19T17:16:28.799Z,49.30
2023-04-19T17:19:00.249Z,49.25
2023-04-19T17:21:31.566Z,48.10
2023-04-19T17:24:03.942Z,50.92
2023-04-19T17:26:35.406Z,49.15
2023-04-19T17:29:06.967Z,48.68
2023-04-19T17:31:41.414Z,48.05
2023-04-19T17:34:12.732Z,48.92
2023-04-19T17:36:44.176Z,52.73
2023-04-19T17:39:16.132Z,47.78
2023-04-19T17:41:47.793Z,53.85
2023-04-19T17:44:21.821Z,49.35
2023-04-19T17:46:53.082Z,48.10
2023-04-19T17:49:24.530Z,47.00
2023-04-19T17:51:57.893Z,47.85
2023-04-19T17:54:29.434Z,47.88
2023-04-19T17:57:00.844Z,48.38
2023-04-19T17:59:34.335Z,46.53
2023-04-19T18:02:05.441Z,48.25
2023-04-19T18:04:39.273Z,45.15
2023-04-19T18:07:10.092Z,47.10
2023-04-19T18:09:41.546Z,46.37
2023-04-19T18:12:12.839Z,48.85
2023-04-19T18:14:44.170Z,46.13
2023-04-19T18:17:15.324Z,51.45
2023-04-19T18:19:46.932Z,49.53
2023-04-19T18:22:18.166Z,47.05
2023-04-19T18:24:52.829Z,45.63
2023-04-19T18:27:24.167Z,46.40
2023-04-19T18:29:55.330Z,47.62
2023-04-19T18:32:28.065Z,46.40
2023-04-19T18:34:59.440Z,45.98
2023-04-19T18:37:30.685Z,45.38
2023-04-19T18:40:02.132Z,47.55
2023-04-19T18:42:33.488Z,46.92
2023-04-19T18:45:06.570Z,46.60
2023-04-19T18:47:46.741Z,45.83
2023-04-19T18:50:19.257Z,48.60
2023-04-19T18:52:52.081Z,47.78
2023-04-19T18:55:23.497Z,46.13
2023-04-19T18:57:54.767Z,48.52
2023-04-19T19:00:26.479Z,45.52
2023-04-19T19:03:02.891Z,44.05
2023-04-19T19:08:04.233Z,46.25
2023-04-19T19:11:06.216Z,46.10
2023-04-19T19:13:08.193Z,46.23
2023-04-19T19:15:39.608Z,46.40
2023-04-19T19:18:11.388Z,48.05
2023-04-19T19:20:42.759Z,46.55
2023-04-19T19:23:14.610Z,50.88
2023-04-19T19:25:46.179Z,47.73
2023-04-19T19:28:17.566Z,48.83
2023-04-19T19:30:50.160Z,48.30
2023-04-19T19:33:22.581Z,49.45
2023-04-19T19:35:53.943Z,46.90
2023-04-19T19:38:25.261Z,49.20
2023-04-19T19:43:29.354Z,49.00
2023-04-19T19:46:00.642Z,51.73
2023-04-19T19:48:37.093Z,49.40
2023-04-19T19:51:31.522Z,50.25
2023-04-19T19:53:37.253Z,49.00
2023-04-19T19:56:14.597Z,50.95
2023-04-19T19:58:48.161Z,52.85
2023-04-19T20:01:13.862Z,47.85
2023-04-19T20:03:46.188Z,50.43
2023-04-19T20:07:07.805Z,48.68
2023-04-19T20:08:51.376Z,50.67
2023-04-19T20:11:22.927Z,50.15
2023-04-19T20:13:54.297Z,50.65
2023-04-19T20:16:25.676Z,50.63
2023-04-19T20:18:58.412Z,55.95
2023-04-19T20:21:29.755Z,50.92
2023-04-19T20:24:01.038Z,50.83
2023-04-19T20:26:32.337Z,54.23
2023-04-19T20:29:04.225Z,52.90
2023-04-19T20:31:35.498Z,52.80
2023-04-19T20:34:07.093Z,51.60
2023-04-19T20:36:38.643Z,52.13
2023-04-19T20:39:14.374Z,55.30
2023-04-19T20:41:46.752Z,55.87
2023-04-19T20:44:19.317Z,54.25
2023-04-19T20:46:51.509Z,54.93
2023-04-19T20:49:22.609Z,57.43
2023-04-19T20:51:53.861Z,53.35
2023-04-19T20:54:25.086Z,55.10
2023-04-19T20:56:56.346Z,54.13
2023-04-19T20:59:27.465Z,55.55
2023-04-19T21:01:58.839Z,55.52
2023-04-19T21:04:30.048Z,52.95
2023-04-19T21:07:01.750Z,55.45
2023-04-19T21:09:32.898Z,55.35
2023-04-19T21:12:06.891Z,57.10
2023-04-19T21:14:37.987Z,55.05
2023-04-19T21:17:09.068Z,57.70
2023-04-19T21:19:42.962Z,56.98
2023-04-19T21:22:14.235Z,57.33
2023-04-19T21:24:45.313Z,59.55
2023-04-19T21:27:16.395Z,56.23
2023-04-19T21:29:47.497Z,55.00
2023-04-19T21:32:18.505Z,57.70
2023-04-19T21:34:49.515Z,60.70
2023-04-19T21:37:21.928Z,61.40
2023-04-19T21:39:53.012Z,58.83
2023-04-19T21:42:24.244Z,62.88
2023-04-19T21:44:55.349Z,57.08
2023-04-19T21:47:26.391Z,58.20
2023-04-19T21:50:00.296Z,61.00
2023-04-19T21:52:31.521Z,58.70
2023-04-19T21:55:03.961Z,59.58
2023-04-19T21:57:39.496Z,58.05
2023-04-19T22:00:14.425Z,55.60
2023-04-19T22:02:46.924Z,59.90
2023-04-19T22:05:22.327Z,59.83
2023-04-19T22:07:53.486Z,57.13
2023-04-19T22:10:25.140Z,58.80
2023-04-19T22:13:01.036Z,61.15
2023-04-19T22:15:35.300Z,57.73
2023-04-19T22:18:09.886Z,60.45
2023-04-19T22:20:41.051Z,61.08
2023-04-19T22:23:12.393Z,58.50
2023-04-19T22:25:43.775Z,57.38
2023-04-19T22:28:14.908Z,59.73
2023-04-19T22:30:46.035Z,58.73
2023-04-19T22:33:17.313Z,62.65
2023-04-19T22:35:48.543Z,58.85
2023-04-19T22:38:19.740Z,60.80
2023-04-19T22:40:51.013Z,61.33
2023-04-19T22:43:22.619Z,59.08
2023-04-19T22:45:53.761Z,58.68
2023-04-19T22:48:24.950Z,58.20
2023-04-19T22:50:56.114Z,56.37
2023-04-19T22:53:27.226Z,54.73
2023-04-19T22:55:58.203Z,56.18
2023-04-19T22:58:29.330Z,55.40
2023-04-19T23:01:00.464Z,56.70
2023-04-19T23:03:31.688Z,60.92
2023-04-19T23:06:03.788Z,58.65
2023-04-19T23:08:35.647Z,58.58
2023-04-19T23:11:07.470Z,56.23
2023-04-19T23:13:42.911Z,58.92
2023-04-19T23:16:14.556Z,56.88
2023-04-19T23:18:46.288Z,54.40
2023-04-19T23:21:17.432Z,56.00
2023-04-19T23:23:48.557Z,53.45
2023-04-19T23:26:19.666Z,53.83
2023-04-19T23:28:50.751Z,57.05
2023-04-19T23:31:21.871Z,53.95
2023-04-19T23:33:53.044Z,54.88
2023-04-19T23:36:24.155Z,56.68
2023-04-19T23:38:55.419Z,51.75
2023-04-19T23:41:26.429Z,52.75
2023-04-19T23:43:57.557Z,52.15
2023-04-19T23:46:28.915Z,56.90
2023-04-19T23:49:00.083Z,54.33
2023-04-19T23:51:31.202Z,51.88
2023-04-19T23:54:02.290Z,58.48
2023-04-19T23:56:33.391Z,56.90
2023-04-19T23:59:04.501Z,54.33
